Time;durP1;ratioP1;P1;durP2;ratioP2;P2;SDS_P1;SDS_P2;PMS_P1;PMS_P2;Temp;Humidity;BMP_temperature;BMP_pressure;BME280_temperature;BME280_humidity;BME280_pressure;Samples;Min_cycle;Max_cycle;Signal;HPM_P1;HPM_P2
2021/01/28 00:02:02;;;;;;;;;;;;;;;17.54;61.82;101355.47;4932450;28;1205;-77
2021/01/28 00:04:29;;;;;;;;;;;;;;;17.52;62.13;101349.44;4970419;28;1903;-74
2021/01/28 00:06:55;;;;;;;;;;;;;;;17.53;61.82;101348.53;4971704;28;1078;-74
2021/01/28 00:09:21;;;;;;;;;;;;;;;17.52;61.89;101349.44;4971595;28;1297;-74
2021/01/28 00:11:48;;;;;;;;;;;;;;;17.49;61.91;101339.88;4971670;28;1059;-73
2021/01/28 00:14:14;;;;;;;;;;;;;;;17.52;61.96;101338.03;4954578;28;1313;-76
2021/01/28 00:16:40;;;;;;;;;;;;;;;17.50;61.85;101330.22;4969952;28;791;-74
2021/01/28 00:19:07;;;;;;;;;;;;;;;17.51;61.70;101326.63;4971742;28;1261;-74
2021/01/28 00:21:36;;;;;;;;;;;;;;;17.50;61.91;101327.56;4938328;28;1206;-74
2021/01/28 00:24:03;;;;;;;;;;;;;;;17.49;61.74;101326.72;4971575;28;1277;-74
2021/01/28 00:26:30;;;;;;;;;;;;;;;17.50;61.81;101327.56;4953488;28;1911;-74
2021/01/28 00:29:06;;;;;;;;;;;;;;;17.51;61.81;101317.91;4953422;28;1293;-75
2021/01/28 00:31:43;;;;;;;;;;;;;;;17.46;61.96;101324.22;4955459;28;1079;-75
2021/01/28 00:34:13;;;;;;;;;;;;;;;17.47;61.84;101319.81;4950290;29;1415;-75
2021/01/28 00:36:39;;;;;;;;;;;;;;;17.47;62.01;101322.44;4951916;28;887;-76
2021/01/28 00:39:08;;;;;;;;;;;;;;;17.49;61.87;101328.47;4934872;29;1224;-75
2021/01/28 00:41:36;;;;;;;;;;;;;;;17.49;62.31;101323.22;4950198;28;1205;-75
2021/01/28 00:44:02;;;;;;;;;;;;;;;17.48;61.90;101317.09;4951597;28;1391;-74
2021/01/28 00:46:30;;;;;;;;;;;;;;;17.48;62.21;101311.81;4951667;28;1955;-74
2021/01/28 00:48:58;;;;;;;;;;;;;;;17.50;62.48;101319.66;4949982;28;1524;-73
2021/01/28 00:51:25;;;;;;;;;;;;;;;17.49;62.49;101318.81;4950150;28;846;-76
2021/01/28 00:53:51;;;;;;;;;;;;;;;17.50;62.36;101309.13;4951901;28;1442;-76
2021/01/28 00:56:17;;;;;;;;;;;;;;;17.48;62.21;101303.91;4951602;28;882;-75
2021/01/28 00:58:44;;;;;;;;;;;;;;;17.50;62.41;101306.50;4951578;29;1285;-77
2021/01/28 01:01:10;;;;;;;;;;;;;;;17.47;62.38;101315.41;4950129;28;795;-76
2021/01/28 01:03:36;;;;;;;;;;;;;;;17.46;62.45;101313.69;4934259;29;1365;-76
2021/01/28 01:06:03;;;;;;;;;;;;;;;17.48;62.48;101305.69;4949955;29;1903;-75
2021/01/28 01:08:31;;;;;;;;;;;;;;;17.46;62.28;101316.31;4949683;28;1280;-75
2021/01/28 01:10:59;;;;;;;;;;;;;;;17.46;62.64;101313.69;4933677;29;1176;-75
2021/01/28 01:13:26;;;;;;;;;;;;;;;17.46;62.57;101316.31;4951136;29;1315;-75
2021/01/28 01:15:53;;;;;;;;;;;;;;;17.46;62.49;101310.19;4933711;29;867;-75
2021/01/28 01:18:21;;;;;;;;;;;;;;;17.45;62.42;101321.63;4951346;28;1284;-74
2021/01/28 01:20:50;;;;;;;;;;;;;;;17.44;62.11;101320.78;4949885;29;1387;-74
2021/01/28 01:23:17;;;;;;;;;;;;;;;17.43;62.01;101311.16;4949735;28;1269;-77
2021/01/28 01:25:51;;;;;;;;;;;;;;;17.42;62.28;101311.22;4951238;29;1971;-76
2021/01/28 01:28:18;;;;;;;;;;;;;;;17.42;62.17;101308.59;4951358;28;1241;-77
2021/01/28 01:30:44;;;;;;;;;;;;;;;17.42;62.00;101298.91;4950836;28;765;-77
2021/01/28 01:33:11;;;;;;;;;;;;;;;17.42;62.22;101296.28;4951083;29;1221;-76
2021/01/28 01:35:37;;;;;;;;;;;;;;;17.42;62.42;101292.78;4933824;29;819;-76
2021/01/28 01:38:04;;;;;;;;;;;;;;;17.42;62.52;101291.00;4949535;29;1387;-75
2021/01/28 01:40:33;;;;;;;;;;;;;;;17.40;62.03;101292.00;4949414;29;781;-77
2021/01/28 01:43:00;;;;;;;;;;;;;;;17.42;61.94;101292.78;4933325;29;1269;-74
2021/01/28 01:45:34;;;;;;;;;;;;;;;17.41;62.38;101293.72;4950496;29;1950;-75
2021/01/28 01:48:04;;;;;;;;;;;;;;;17.40;62.20;101299.91;4950921;29;1204;-75
2021/01/28 01:50:42;;;;;;;;;;;;;;;17.41;62.20;101304.25;4950912;29;800;-75
2021/01/28 01:53:12;;;;;;;;;;;;;;;17.39;62.37;101309.56;4933536;29;1298;-77
2021/01/28 01:55:39;;;;;;;;;;;;;;;17.41;62.24;101309.53;4949318;29;1182;-76
2021/01/28 01:58:07;;;;;;;;;;;;;;;17.42;62.54;101301.53;4950960;28;1307;-76
2021/01/28 02:00:33;;;;;;;;;;;;;;;17.41;62.24;101305.13;4950616;28;788;-76
2021/01/28 02:03:02;;;;;;;;;;;;;;;17.37;62.28;101300.91;4951383;28;1388;-75
2021/01/28 02:05:30;;;;;;;;;;;;;;;17.39;62.54;101306.94;4953060;28;1930;-76
2021/01/28 02:07:58;;;;;;;;;;;;;;;17.40;62.45;101302.53;4954676;29;1352;-75
2021/01/28 02:10:24;;;;;;;;;;;;;;;17.36;62.23;101291.28;4937164;29;783;-75
2021/01/28 02:12:53;;;;;;;;;;;;;;;17.38;62.69;101291.22;4954627;28;1369;-75
2021/01/28 02:15:22;;;;;;;;;;;;;;;17.35;62.43;101300.13;4954380;28;799;-74
2021/01/28 02:17:51;;;;;;;;;;;;;;;17.37;62.17;101292.13;4954521;28;1372;-75
2021/01/28 02:20:38;;;;;;;;;;;;;;;17.35;62.07;101291.34;4954325;28;838;-74
2021/01/28 02:23:14;;;;;;;;;;;;;;;17.36;62.57;101295.69;4936904;29;1382;-73
2021/01/28 02:25:43;;;;;;;;;;;;;;;17.35;62.45;101294.00;4954247;29;1910;-75
2021/01/28 02:28:11;;;;;;;;;;;;;;;17.33;62.41;101295.81;4952680;28;1314;-75
2021/01/28 02:30:39;;;;;;;;;;;;;;;17.31;62.44;101293.25;4952757;28;1187;-76
2021/01/28 02:33:06;;;;;;;;;;;;;;;17.32;62.22;101284.44;4945319;28;1573;-75
2021/01/28 02:35:33;;;;;;;;;;;;;;;17.34;62.52;101279.09;4973371;28;1096;-75
2021/01/28 02:38:01;;;;;;;;;;;;;;;17.32;62.62;101294.13;4973555;28;1264;-74
2021/01/28 02:40:30;;;;;;;;;;;;;;;17.33;62.37;101285.28;4956004;28;815;-74
2021/01/28 02:42:56;;;;;;;;;;;;;;;17.31;62.44;101292.41;4973475;28;1271;-75
2021/01/28 02:45:23;;;;;;;;;;;;;;;17.32;62.43;101287.09;4973791;28;1991;-75
2021/01/28 02:47:56;;;;;;;;;;;;;;;17.30;62.46;101290.69;4973488;28;1222;-76
2021/01/28 02:50:22;;;;;;;;;;;;;;;17.31;62.45;101279.22;4939859;28;1314;-75
2021/01/28 02:52:52;;;;;;;;;;;;;;;17.31;62.29;101287.13;4971945;28;1364;-77
2021/01/28 02:55:18;;;;;;;;;;;;;;;17.32;62.47;101286.22;4955888;28;780;-76
2021/01/28 02:57:44;;;;;;;;;;;;;;;17.30;62.56;101278.38;4972912;28;1389;-76
2021/01/28 03:00:16;;;;;;;;;;;;;;;17.30;62.49;101269.59;4955767;28;1294;-75
2021/01/28 03:02:43;;;;;;;;;;;;;;;17.29;62.76;101275.81;4973175;28;1383;-76
2021/01/28 03:05:10;;;;;;;;;;;;;;;17.29;62.99;101268.78;4972700;28;1997;-76
2021/01/28 03:07:37;;;;;;;;;;;;;;;17.28;62.61;101272.31;4972876;28;1347;-75
2021/01/28 03:10:05;;;;;;;;;;;;;;;17.27;62.90;101267.09;4972783;28;1147;-75
2021/01/28 03:12:31;;;;;;;;;;;;;;;17.29;62.83;101278.44;4972723;28;1148;-75
2021/01/28 03:14:58;;;;;;;;;;;;;;;17.30;62.65;101275.75;4972716;28;1284;-77
2021/01/28 03:17:24;;;;;;;;;;;;;;;17.28;62.65;101274.09;4971569;28;1115;-76
2021/01/28 03:19:51;;;;;;;;;;;;;;;17.26;62.53;101268.91;4972698;28;1320;-77
2021/01/28 03:22:17;;;;;;;;;;;;;;;17.28;62.93;101264.44;4972682;28;1062;-75
2021/01/28 03:24:43;;;;;;;;;;;;;;;17.26;62.76;101260.16;4955151;28;1906;-76
2021/01/28 03:27:10;;;;;;;;;;;;;;;17.25;62.71;101264.56;4955048;28;1372;-75
2021/01/28 03:29:36;;;;;;;;;;;;;;;17.27;62.87;101273.22;4954848;28;1292;-75
2021/01/28 03:32:03;;;;;;;;;;;;;;;17.27;62.79;101280.28;4972267;28;1018;-75
2021/01/28 03:34:29;;;;;;;;;;;;;;;17.27;63.04;101288.16;4972352;28;1304;-75
2021/01/28 03:36:55;;;;;;;;;;;;;;;17.24;63.04;101270.72;4972350;28;925;-76
2021/01/28 03:39:22;;;;;;;;;;;;;;;17.23;62.85;101265.53;4972410;28;1293;-75
2021/01/28 03:41:48;;;;;;;;;;;;;;;17.27;63.11;101267.09;4972234;28;1091;-75
2021/01/28 03:44:14;;;;;;;;;;;;;;;17.26;62.96;101278.59;4954616;28;1551;-76
2021/01/28 03:46:40;;;;;;;;;;;;;;;17.25;62.81;101276.84;4972139;28;1984;-76
2021/01/28 03:49:07;;;;;;;;;;;;;;;17.25;63.06;101275.09;4954917;28;1324;-77
2021/01/28 03:51:37;;;;;;;;;;;;;;;17.24;62.69;101275.13;4955635;28;1108;-76
2021/01/28 03:54:05;;;;;;;;;;;;;;;17.22;63.18;101274.34;4939090;28;1308;-74
2021/01/28 03:56:31;;;;;;;;;;;;;;;17.26;63.07;101273.31;4954893;28;1359;-74
2021/01/28 03:58:58;;;;;;;;;;;;;;;17.22;63.12;101271.72;4954791;28;1336;-74
2021/01/28 04:01:24;;;;;;;;;;;;;;;17.23;63.13;101262.91;4954588;28;1157;-75
2021/01/28 04:03:51;;;;;;;;;;;;;;;17.23;63.25;101278.72;4954562;28;1332;-74
2021/01/28 04:06:17;;;;;;;;;;;;;;;17.21;63.21;101270.00;4971687;28;1911;-74
2021/01/28 04:08:43;;;;;;;;;;;;;;;17.24;63.24;101267.22;4971823;28;1324;-73
2021/01/28 04:11:10;;;;;;;;;;;;;;;17.22;63.29;101266.47;4971685;28;823;-74
2021/01/28 04:13:36;;;;;;;;;;;;;;;17.22;63.10;101264.69;4954187;28;1350;-76
2021/01/28 04:16:03;;;;;;;;;;;;;;;17.22;63.03;101266.47;4954408;28;1136;-76
2021/01/28 04:18:29;;;;;;;;;;;;;;;17.21;63.10;101264.72;4971807;28;1343;-74
2021/01/28 04:20:55;;;;;;;;;;;;;;;17.20;63.37;101257.78;4971506;28;962;-74
2021/01/28 04:23:22;;;;;;;;;;;;;;;17.22;62.98;101253.28;4953903;28;1356;-75
2021/01/28 04:25:48;;;;;;;;;;;;;;;17.22;63.22;101250.66;4970563;28;2004;-74
2021/01/28 04:28:14;;;;;;;;;;;;;;;17.22;63.29;101240.13;4953746;28;1300;-75
2021/01/28 04:30:40;;;;;;;;;;;;;;;17.22;63.04;101242.75;4953813;28;776;-76
2021/01/28 04:33:09;;;;;;;;;;;;;;;17.22;63.22;101238.34;4937826;28;1254;-76
2021/01/28 04:35:36;;;;;;;;;;;;;;;17.21;63.12;101238.41;4954002;28;824;-76
2021/01/28 04:38:03;;;;;;;;;;;;;;;17.20;63.14;101224.41;4971231;28;1296;-75
2021/01/28 04:40:46;;;;;;;;;;;;;;;17.19;63.36;101224.47;4953950;28;831;-76
2021/01/28 04:43:20;;;;;;;;;;;;;;;17.20;63.15;101220.91;4953608;28;1434;-76
2021/01/28 04:45:48;;;;;;;;;;;;;;;17.18;63.06;101222.75;4971096;28;1914;-76
2021/01/28 04:48:15;;;;;;;;;;;;;;;17.18;63.32;101222.75;4971122;28;1350;-77
2021/01/28 04:50:42;;;;;;;;;;;;;;;17.18;63.15;101217.47;4953397;28;1297;-75
2021/01/28 04:53:14;;;;;;;;;;;;;;;17.18;63.37;101217.47;4953607;28;1261;-76
2021/01/28 04:55:42;;;;;;;;;;;;;;;17.18;63.19;101217.47;4970679;28;819;-76
2021/01/28 04:58:09;;;;;;;;;;;;;;;17.19;63.49;101227.09;4953412;28;1332;-76
2021/01/28 05:00:36;;;;;;;;;;;;;;;17.17;63.32;101231.59;4970505;28;826;-76
2021/01/28 05:03:15;;;;;;;;;;;;;;;17.20;63.29;101218.28;4953093;28;1337;-76
2021/01/28 05:05:41;;;;;;;;;;;;;;;17.18;63.41;101214.84;4954939;28;1985;-77
2021/01/28 05:08:08;;;;;;;;;;;;;;;17.17;63.42;101211.38;4956505;28;1300;-77
2021/01/28 05:10:36;;;;;;;;;;;;;;;17.18;63.52;101214.84;4973623;28;787;-75
2021/01/28 05:13:05;;;;;;;;;;;;;;;17.18;63.24;101212.22;4973135;28;1379;-74
2021/01/28 05:15:33;;;;;;;;;;;;;;;17.19;63.34;101219.19;4970660;28;811;-75
2021/01/28 05:18:16;;;;;;;;;;;;;;;17.17;63.49;101210.53;4952553;28;1528;-74
2021/01/28 05:20:44;;;;;;;;;;;;;;;17.17;63.55;101200.84;4952791;28;1298;-74
2021/01/28 05:23:36;;;;;;;;;;;;;;;17.17;63.42;101213.16;4970046;28;1551;-74
2021/01/28 05:26:23;;;;;;;;;;;;;;;17.17;63.73;101202.63;4952296;28;1917;-75
2021/01/28 05:28:49;;;;;;;;;;;;;;;17.17;63.43;101197.34;4970563;28;1384;-74
2021/01/28 05:31:26;;;;;;;;;;;;;;;17.17;63.40;101202.63;4949886;29;1277;-75
2021/01/28 05:34:03;;;;;;;;;;;;;;;17.15;63.49;101197.41;4951339;29;1350;-74
2021/01/28 05:36:29;;;;;;;;;;;;;;;17.14;63.55;101195.72;4917992;28;1243;-74
2021/01/28 05:38:55;;;;;;;;;;;;;;;17.15;63.38;101191.28;4952429;28;1289;-74
2021/01/28 05:41:28;;;;;;;;;;;;;;;17.16;63.47;101188.59;4968594;28;1442;-75
2021/01/28 05:43:55;;;;;;;;;;;;;;;17.15;63.50;101197.41;4952783;28;1470;-74
2021/01/28 05:46:25;;;;;;;;;;;;;;;17.15;63.59;101207.06;4936739;28;1991;-75
2021/01/28 05:49:01;;;;;;;;;;;;;;;17.15;63.52;101204.44;4965371;28;1477;-76
2021/01/28 05:51:35;;;;;;;;;;;;;;;17.14;63.45;101200.13;4969990;28;930;-74
2021/01/28 05:54:04;;;;;;;;;;;;;;;17.13;63.52;101201.03;4970416;28;1431;-74
2021/01/28 05:56:31;;;;;;;;;;;;;;;17.13;63.51;101209.78;4970213;28;846;-75
2021/01/28 05:59:11;;;;;;;;;;;;;;;17.16;63.79;101203.53;4970381;28;1245;-76
2021/01/28 06:01:38;;;;;;;;;;;;;;;17.17;63.77;101211.38;4970036;28;834;-75
2021/01/28 06:04:12;;;;;;;;;;;;;;;17.18;63.67;101212.22;4952580;28;1315;-75
2021/01/28 06:06:48;;;;;;;;;;;;;;;17.16;63.55;101201.75;4969907;28;1907;-75
2021/01/28 06:09:14;;;;;;;;;;;;;;;17.20;63.64;101205.13;4970614;28;1254;-79
2021/01/28 06:12:05;;;;;;;;;;;;;;;17.18;63.27;101212.22;4952897;28;1209;-76
2021/01/28 06:14:42;;;;;;;;;;;;;;;17.16;63.49;101216.69;4970370;28;1277;-75
2021/01/28 06:17:28;;;;;;;;;;;;;;;17.17;63.46;101223.69;4952996;28;1043;-77
2021/01/28 06:20:15;;;;;;;;;;;;;;;17.14;63.73;101227.31;4952662;28;1297;-78
2021/01/28 06:22:53;;;;;;;;;;;;;;;17.14;63.74;101236.97;4935607;28;1458;-80
2021/01/28 06:25:43;;;;;;;;;;;;;;;17.16;63.57;101224.59;4969791;28;1994;-78
2021/01/28 06:28:44;;;;;;;;;;;;;;;17.17;63.58;101232.44;4968594;28;1261;-76
2021/01/28 06:31:24;;;;;;;;;;;;;;;17.28;63.32;101239.88;4926566;28;1734;-75
2021/01/28 06:34:09;;;;;;;;;;;;;;;17.28;63.06;101248.63;4951274;28;1528;-74
2021/01/28 06:37:01;;;;;;;;;;;;;;;17.37;63.02;101242.09;4952431;28;800;-70
2021/01/28 06:39:28;;;;;;;;;;;;;;;17.36;63.14;101248.28;4920776;28;1498;-71
2021/01/28 06:42:01;;;;;;;;;;;;;;;17.47;62.83;101261.84;4950022;29;1040;-71
2021/01/28 06:44:34;;;;;;;;;;;;;;;17.51;62.68;101260.78;4950136;28;1723;-69
2021/01/28 06:47:05;;;;;;;;;;;;;;;17.46;63.20;101255.72;4950333;29;1926;-77
2021/01/28 06:49:55;;;;;;;;;;;;;;;17.58;62.90;101251.72;4951560;28;1364;-71
2021/01/28 06:52:25;;;;;;;;;;;;;;;17.71;62.30;101241.50;4953608;29;1050;-72
2021/01/28 06:54:57;;;;;;;;;;;;;;;17.72;62.52;101244.06;4953514;28;1237;-75
2021/01/28 06:57:53;;;;;;;;;;;;;;;17.67;63.87;101242.56;4953676;29;954;-72
2021/01/28 07:00:47;;;;;;;;;;;;;;;17.88;63.53;101244.22;4939233;28;1197;-76
2021/01/28 07:03:22;;;;;;;;;;;;;;;17.85;63.66;101247.88;4931363;28;1641;-69
2021/01/28 07:05:58;;;;;;;;;;;;;;;17.70;63.38;101245.91;4972300;28;1907;-67
2021/01/28 07:08:30;;;;;;;;;;;;;;;17.73;63.46;101239.66;4971496;28;1267;-69
2021/01/28 07:11:00;;;;;;;;;;;;;;;17.72;63.27;101248.50;4971365;28;919;-69
2021/01/28 07:13:29;;;;;;;;;;;;;;;17.75;63.37;101241.28;4971621;28;1241;-67
2021/01/28 07:16:00;;;;;;;;;;;;;;;17.76;63.46;101242.16;4971190;28;1104;-67
2021/01/28 07:18:41;;;;;;;;;;;;;;;17.79;63.36;101234.97;4972502;28;1230;-70
2021/01/28 07:21:11;;;;;;;;;;;;;;;17.82;63.44;101228.69;4971981;28;851;-71
2021/01/28 07:23:38;;;;;;;;;;;;;;;17.88;63.44;101231.91;4972406;28;1269;-69
2021/01/28 07:26:10;;;;;;;;;;;;;;;17.88;63.32;101237.19;4972408;28;1980;-70
2021/01/28 07:28:38;;;;;;;;;;;;;;;17.91;63.80;101237.03;4954998;28;1364;-69
2021/01/28 07:31:07;;;;;;;;;;;;;;;18.02;62.94;101220.75;4961046;28;1050;-68
2021/01/28 07:33:35;;;;;;;;;;;;;;;17.95;63.28;101241.25;4971147;28;1418;-69
2021/01/28 07:36:03;;;;;;;;;;;;;;;18.01;63.35;101235.69;4971229;28;983;-70
2021/01/28 07:38:29;;;;;;;;;;;;;;;17.97;63.54;101236.75;4971807;28;1216;-68
2021/01/28 07:40:56;;;;;;;;;;;;;;;17.99;63.37;101239.34;5196096;23;3605;-68
2021/01/28 07:43:27;;;;;;;;;;;;;;;17.96;63.36;101245.59;4950849;28;1098;-71
2021/01/28 07:46:11;;;;;;;;;;;;;;;17.97;63.43;101243.81;4950935;29;1899;-69
2021/01/28 07:48:39;;;;;;;;;;;;;;;17.96;63.60;101250.03;4950352;28;838;-76
2021/01/28 07:51:24;;;;;;;;;;;;;;;17.97;63.54;101257.84;4950734;29;1447;-70
2021/01/28 07:53:50;;;;;;;;;;;;;;;17.94;63.37;101252.72;4950054;29;1058;-68
2021/01/28 07:56:53;;;;;;;;;;;;;;;17.99;61.93;101258.63;4932796;29;1379;-69
2021/01/28 07:59:24;;;;;;;;;;;;;;;18.01;61.58;101248.03;4905793;29;1357;-69
2021/01/28 08:02:10;;;;;;;;;;;;;;;17.93;63.02;101255.44;4947978;28;1830;-68
2021/01/28 08:04:48;;;;;;;;;;;;;;;17.93;63.35;101253.63;4930478;29;1932;-68
2021/01/28 08:07:20;;;;;;;;;;;;;;;17.97;63.22;101254.34;4935751;28;1977;-68
2021/01/28 08:09:54;;;;;;;;;;;;;;;17.94;63.39;101251.84;4940040;29;1257;-67
2021/01/28 08:12:28;;;;;;;;;;;;;;;17.92;63.48;101249.31;4926553;29;906;-68
2021/01/28 08:14:55;;;;;;;;;;;;;;;17.90;63.49;101256.41;4911601;29;1455;-68
2021/01/28 08:17:25;;;;;;;;;;;;;;;17.89;63.31;101262.63;4911866;29;760;-68
2021/01/28 08:20:10;;;;;;;;;;;;;;;17.91;63.46;101262.53;4927361;29;1363;-72
2021/01/28 08:22:47;;;;;;;;;;;;;;;18.02;63.25;101265.56;4927712;29;784;-67
2021/01/28 08:25:14;;;;;;;;;;;;;;;17.95;63.41;101254.44;4927427;29;2001;-70
2021/01/28 08:27:40;;;;;;;;;;;;;;;17.93;63.19;101266.81;4927706;29;811;-68
2021/01/28 08:30:15;;;;;;;;;;;;;;;17.92;63.47;101264.25;4928938;29;1612;-70
2021/01/28 08:32:53;;;;;;;;;;;;;;;17.95;63.50;101264.97;4939783;29;747;-70
2021/01/28 08:35:37;;;;;;;;;;;;;;;17.96;63.53;101257.94;4942743;28;1372;-69
2021/01/28 08:38:03;;;;;;;;;;;;;;;17.97;63.38;101263.13;4971476;28;854;-70
2021/01/28 08:40:30;;;;;;;;;;;;;;;17.98;63.47;101270.13;4953680;28;1405;-70
2021/01/28 08:43:18;;;;;;;;;;;;;;;17.97;63.48;101275.44;4954493;28;1803;-73
2021/01/28 08:45:45;;;;;;;;;;;;;;;17.96;63.25;101271.94;4933278;29;1919;-73
2021/01/28 08:48:24;;;;;;;;;;;;;;;17.98;62.68;101280.66;4949640;28;1041;-68
2021/01/28 08:51:01;;;;;;;;;;;;;;;18.01;63.11;101279.66;4950760;29;1813;-68
2021/01/28 08:53:28;;;;;;;;;;;;;;;18.00;63.30;101284.06;4949557;29;760;-68
2021/01/28 08:56:06;;;;;;;;;;;;;;;18.01;63.43;101283.16;4932803;29;1366;-66
2021/01/28 08:58:37;;;;;;;;;;;;;;;18.01;63.39;101285.78;4949567;29;1774;-66
2021/01/28 09:01:04;;;;;;;;;;;;;;;18.03;63.05;101283.94;4949889;29;1221;-67
2021/01/28 09:03:39;;;;;;;;;;;;;;;18.06;62.99;101287.34;4949890;28;1096;-69
2021/01/28 09:06:05;;;;;;;;;;;;;;;18.05;63.34;101293.56;4950432;29;2007;-69
2021/01/28 09:08:37;;;;;;;;;;;;;;;18.01;63.22;101291.06;4949872;29;787;-70
2021/01/28 09:11:22;;;;;;;;;;;;;;;18.01;63.43;101301.59;4949718;29;1327;-70
2021/01/28 09:14:01;;;;;;;;;;;;;;;18.01;63.49;101301.59;4949881;29;1062;-70
2021/01/28 09:16:33;;;;;;;;;;;;;;;18.01;63.50;101306.88;4920382;29;1846;-69
2021/01/28 09:19:13;;;;;;;;;;;;;;;18.04;63.27;101311.16;4930430;29;1130;-69
2021/01/28 09:21:40;;;;;;;;;;;;;;;18.05;63.10;101312.88;4930156;29;1285;-69
2021/01/28 09:24:36;;;;;;;;;;;;;;;18.08;62.77;101314.50;4932449;28;1552;-70
2021/01/28 09:27:05;;;;;;;;;;;;;;;18.09;62.96;101324.16;4941800;28;1911;-69
2021/01/28 09:29:36;;;;;;;;;;;;;;;18.09;63.05;101318.88;4932326;29;1629;-70
2021/01/28 09:32:17;;;;;;;;;;;;;;;18.08;63.23;101328.56;4961016;28;850;-69
2021/01/28 09:34:45;;;;;;;;;;;;;;;18.07;63.34;101337.38;4951528;28;1364;-68
2021/01/28 09:37:32;;;;;;;;;;;;;;;18.08;63.27;101340.88;4953030;28;736;-68
2021/01/28 09:39:58;;;;;;;;;;;;;;;18.11;63.39;101346.00;4948520;28;1477;-68
2021/01/28 09:42:28;;;;;;;;;;;;;;;18.11;63.24;101338.09;4949266;29;794;-68
2021/01/28 09:45:14;;;;;;;;;;;;;;;18.16;62.92;101336.97;4949006;29;1360;-68
2021/01/28 09:47:48;;;;;;;;;;;;;;;18.13;63.30;101342.38;4941852;29;1101;-67
2021/01/28 09:50:15;;;;;;;;;;;;;;;18.15;63.21;101343.16;4939637;28;1660;-69
2021/01/28 09:52:43;;;;;;;;;;;;;;;18.16;62.77;101341.38;4963331;28;1068;-67
2021/01/28 09:55:21;;;;;;;;;;;;;;;18.17;62.19;101345.72;4947999;28;1289;-68
2021/01/28 09:57:49;;;;;;;;;;;;;;;18.17;62.45;101345.72;4948971;29;931;-67
2021/01/28 10:00:17;;;;;;;;;;;;;;;18.15;62.79;101358.97;4931974;29;1456;-67
2021/01/28 10:02:45;;;;;;;;;;;;;;;18.18;62.68;101363.28;4949325;28;862;-68
2021/01/28 10:05:14;;;;;;;;;;;;;;;18.24;62.39;101365.63;4949382;29;1343;-68
2021/01/28 10:07:41;;;;;;;;;;;;;;;18.22;62.76;101370.09;4948966;29;811;-69
2021/01/28 10:10:07;;;;;;;;;;;;;;;18.22;62.41;101364.81;4948559;28;1284;-67
2021/01/28 10:12:34;;;;;;;;;;;;;;;18.21;62.60;101366.59;4949269;29;1117;-67
2021/01/28 10:15:00;;;;;;;;;;;;;;;18.21;62.30;101369.25;4931587;29;1293;-67
2021/01/28 10:17:28;;;;;;;;;;;;;;;18.22;62.29;101367.47;4948871;28;839;-67
2021/01/28 10:19:55;;;;;;;;;;;;;;;18.17;62.43;101353.66;4949074;28;1265;-68
2021/01/28 10:22:22;;;;;;;;;;;;;;;18.22;62.46;101363.06;4948821;28;1057;-71
2021/01/28 10:24:55;;;;;;;;;;;;;;;18.22;62.53;101360.41;4933347;29;1428;-71
2021/01/28 10:27:22;;;;;;;;;;;;;;;18.23;62.53;101369.19;4935181;29;1981;-72
2021/01/28 10:29:49;;;;;;;;;;;;;;;18.23;62.57;101375.31;4952645;29;1360;-70
2021/01/28 10:32:16;;;;;;;;;;;;;;;18.24;62.52;101363.84;4952532;28;823;-71
2021/01/28 10:34:43;;;;;;;;;;;;;;;18.24;62.52;101365.63;4950631;29;1354;-70
2021/01/28 10:37:12;;;;;;;;;;;;;;;18.25;62.54;101372.59;4952549;29;716;-72
2021/01/28 10:39:38;;;;;;;;;;;;;;;18.26;62.47;101369.91;4952424;29;1335;-69
2021/01/28 10:42:05;;;;;;;;;;;;;;;18.26;62.49;101359.38;4951081;29;1790;-70
2021/01/28 10:44:31;;;;;;;;;;;;;;;18.26;62.52;101362.00;4950469;28;1713;-72
2021/01/28 10:46:57;;;;;;;;;;;;;;;18.26;62.49;101358.50;4952409;29;1927;-73
2021/01/28 10:49:24;;;;;;;;;;;;;;;18.28;62.96;101360.13;4952329;28;1793;-71
2021/01/28 10:51:51;;;;;;;;;;;;;;;18.31;62.75;101361.78;4934821;29;1377;-73
2021/01/28 10:54:17;;;;;;;;;;;;;;;18.30;62.48;101360.09;4952443;28;1059;-73
2021/01/28 10:56:43;;;;;;;;;;;;;;;18.29;62.40;101361.00;4933955;29;1298;-72
2021/01/28 10:59:10;;;;;;;;;;;;;;;18.30;62.72;101350.38;4961974;28;1165;-70
2021/01/28 11:01:37;;;;;;;;;;;;;;;18.30;62.41;101360.91;4950987;28;1301;-71
2021/01/28 11:04:04;;;;;;;;;;;;;;;18.31;62.66;101359.13;4951581;28;1061;-73
2021/01/28 11:06:31;;;;;;;;;;;;;;;18.31;62.40;101361.78;4964416;28;1907;-71
2021/01/28 11:08:57;;;;;;;;;;;;;;;18.31;62.44;101364.41;4971005;28;1145;-68
2021/01/28 11:11:23;;;;;;;;;;;;;;;18.32;63.54;101359.09;4970554;28;1229;-68
2021/01/28 11:13:52;;;;;;;;;;;;;;;18.30;62.95;101355.63;4971315;28;1089;-69
2021/01/28 11:16:23;;;;;;;;;;;;;;;18.35;63.01;101352.81;4970678;28;1229;-68
2021/01/28 11:18:51;;;;;;;;;;;;;;;18.41;63.12;101342.84;4970961;28;1144;-68
2021/01/28 11:21:18;;;;;;;;;;;;;;;18.40;62.82;101334.97;4970619;28;1320;-69
2021/01/28 11:23:44;;;;;;;;;;;;;;;18.38;62.57;101337.72;4953365;28;1052;-69
2021/01/28 11:26:10;;;;;;;;;;;;;;;18.37;62.67;101335.97;4970080;28;1915;-68
2021/01/28 11:28:37;;;;;;;;;;;;;;;18.36;62.81;101328.97;4970525;28;873;-69
2021/01/28 11:31:04;;;;;;;;;;;;;;;18.36;62.63;101323.72;4970774;28;1351;-68
2021/01/28 11:33:31;;;;;;;;;;;;;;;18.36;62.68;101321.06;4970243;28;910;-67
2021/01/28 11:35:58;;;;;;;;;;;;;;;18.37;62.52;101321.94;4970300;28;1292;-67
2021/01/28 11:38:24;;;;;;;;;;;;;;;18.38;62.88;101315.75;4969257;28;1217;-69
2021/01/28 11:40:51;;;;;;;;;;;;;;;18.41;63.05;101315.59;4969933;28;1322;-69
2021/01/28 11:43:18;;;;;;;;;;;;;;;18.48;63.00;101312.59;4970280;28;810;-69
2021/01/28 11:45:44;;;;;;;;;;;;;;;18.48;62.95;101309.94;4952847;28;1902;-69
2021/01/28 11:48:10;;;;;;;;;;;;;;;18.45;62.78;101293.44;4970165;28;776;-70
2021/01/28 11:50:37;;;;;;;;;;;;;;;18.42;62.65;101296.22;4968075;28;1421;-70
2021/01/28 11:53:03;;;;;;;;;;;;;;;18.43;62.52;101282.94;4969961;28;1048;-70
2021/01/28 11:55:30;;;;;;;;;;;;;;;18.46;62.41;101284.56;4952360;28;1379;-69
2021/01/28 11:57:57;;;;;;;;;;;;;;;18.44;62.59;101279.38;4969425;28;775;-70
2021/01/28 12:00:25;;;;;;;;;;;;;;;18.42;62.35;101269.84;4952378;28;1278;-68
2021/01/28 12:02:51;;;;;;;;;;;;;;;18.44;62.12;101274.13;4971425;28;763;-68
2021/01/28 12:05:19;;;;;;;;;;;;;;;18.44;62.00;101268.84;4954324;28;1380;-68
2021/01/28 12:07:46;;;;;;;;;;;;;;;18.42;62.19;101267.19;4971767;28;1910;-67
2021/01/28 12:10:16;;;;;;;;;;;;;;;18.41;62.08;101252.28;4971527;28;1245;-68
2021/01/28 12:12:46;;;;;;;;;;;;;;;18.39;61.90;101259.44;4971312;28;806;-68
2021/01/28 12:15:12;;;;;;;;;;;;;;;18.39;62.23;101251.53;4954001;28;1260;-66
2021/01/28 12:17:39;;;;;;;;;;;;;;;18.41;61.86;101252.28;4932769;29;1963;-68
2021/01/28 12:20:07;;;;;;;;;;;;;;;18.39;61.76;101240.97;4948873;29;1806;-68
2021/01/28 12:22:34;;;;;;;;;;;;;;;18.48;61.48;101248.44;4950218;29;922;-68
2021/01/28 12:25:00;;;;;;;;;;;;;;;18.45;61.66;101241.50;4932037;29;1798;-67
2021/01/28 12:27:27;;;;;;;;;;;;;;;18.46;61.54;101235.31;4949556;29;1930;-69
2021/01/28 12:29:53;;;;;;;;;;;;;;;18.49;61.38;101239.63;4949997;29;1241;-66
2021/01/28 12:32:19;;;;;;;;;;;;;;;18.48;61.36;101229.97;4949461;28;771;-67
2021/01/28 12:34:46;;;;;;;;;;;;;;;18.45;61.53;101235.41;4913237;29;1324;-68
2021/01/28 12:37:14;;;;;;;;;;;;;;;18.41;61.63;101232.06;4930837;29;1085;-66
2021/01/28 12:39:40;;;;;;;;;;;;;;;18.41;61.37;101229.41;4929226;29;1260;-65
2021/01/28 12:42:07;;;;;;;;;;;;;;;18.43;61.37;101229.31;4930422;29;1243;-68
2021/01/28 12:44:34;;;;;;;;;;;;;;;18.40;61.35;101224.19;4931142;29;1285;-68
2021/01/28 12:47:00;;;;;;;;;;;;;;;18.40;61.36;101225.06;4929868;29;1966;-68
2021/01/28 12:49:27;;;;;;;;;;;;;;;18.40;61.24;101225.06;4930424;29;1722;-68
2021/01/28 12:51:53;;;;;;;;;;;;;;;18.40;61.29;101219.78;4948501;28;1348;-68
2021/01/28 12:54:21;;;;;;;;;;;;;;;18.42;61.06;101217.09;4950213;29;1061;-67
2021/01/28 12:56:47;;;;;;;;;;;;;;;18.44;60.74;101210.81;4950098;28;1278;-68
2021/01/28 12:59:13;;;;;;;;;;;;;;;18.51;60.53;101212.22;4932944;29;1129;-67
2021/01/28 13:01:39;;;;;;;;;;;;;;;18.54;60.55;101200.69;4949589;29;1208;-69
2021/01/28 13:04:06;;;;;;;;;;;;;;;18.50;60.82;101199.97;4916499;29;1759;-70